createdAt,value
2023-01-12T00:00:47.012Z,481.10
2023-01-12T00:01:47.007Z,432.80
2023-01-12T00:02:47.011Z,448.40
2023-01-12T00:03:47.023Z,252.80
2023-01-12T00:04:47.008Z,474.20
2023-01-12T00:05:46.952Z,431.80
2023-01-12T00:06:46.953Z,408.70
2023-01-12T00:07:46.928Z,433.70
2023-01-12T00:08:46.927Z,429.60
2023-01-12T00:09:46.964Z,332.10
2023-01-12T00:10:46.899Z,342.00
2023-01-12T00:11:46.903Z,367.90
2023-01-12T00:12:46.890Z,389.50
2023-01-12T00:13:46.892Z,362.50
2023-01-12T00:14:46.907Z,446.60
2023-01-12T00:15:46.893Z,308.70
2023-01-12T00:16:46.850Z,324.90
2023-01-12T00:17:46.825Z,387.10
2023-01-12T00:18:46.815Z,336.00
2023-01-12T00:19:46.806Z,316.20
2023-01-12T00:20:46.841Z,312.10
2023-01-12T00:21:46.784Z,349.90
2023-01-12T00:22:46.772Z,322.20
2023-01-12T00:23:46.769Z,390.70
2023-01-12T00:24:46.774Z,370.10
2023-01-12T00:25:46.785Z,370.00
2023-01-12T00:26:46.721Z,374.80
2023-01-12T00:27:46.776Z,368.40
2023-01-12T00:28:46.692Z,364.20
2023-01-12T00:29:46.696Z,350.10
2023-01-12T00:30:46.705Z,362.70
2023-01-12T00:31:46.655Z,377.80
2023-01-12T00:32:46.656Z,379.80
2023-01-12T00:33:46.633Z,369.10
2023-01-12T00:34:46.642Z,384.70
2023-01-12T00:35:46.667Z,327.30
2023-01-12T00:36:46.619Z,347.60
2023-01-12T00:37:46.606Z,359.50
2023-01-12T00:38:46.602Z,379.20
2023-01-12T00:40:00.784Z,329.40
2023-01-12T00:40:47.602Z,332.10
2023-01-12T00:41:46.569Z,358.50
2023-01-12T00:42:46.584Z,351.30
2023-01-12T00:43:46.534Z,360.20
2023-01-12T00:44:46.540Z,352.10
2023-01-12T00:45:46.549Z,330.90
2023-01-12T00:46:46.502Z,329.40
2023-01-12T00:47:46.508Z,345.20
2023-01-12T00:48:46.499Z,354.50
2023-01-12T00:49:46.522Z,352.40
2023-01-12T00:50:46.497Z,347.40
2023-01-12T00:51:46.439Z,329.30
2023-01-12T00:52:46.436Z,337.30
2023-01-12T00:53:46.439Z,358.10
2023-01-12T00:54:46.421Z,349.60
2023-01-12T00:55:46.455Z,352.20
2023-01-12T00:56:46.402Z,384.60
2023-01-12T00:57:46.387Z,338.20
2023-01-12T00:58:46.362Z,350.20
2023-01-12T00:59:46.363Z,358.40
2023-01-12T01:00:46.397Z,340.80
2023-01-12T01:01:46.396Z,377.90
2023-01-12T01:02:46.423Z,362.90
2023-01-12T01:03:46.314Z,326.20
2023-01-12T01:04:46.301Z,373.00
2023-01-12T01:05:46.315Z,366.10
2023-01-12T01:06:46.284Z,341.60
2023-01-12T01:07:46.277Z,346.40
2023-01-12T01:08:46.273Z,357.80
2023-01-12T01:09:46.260Z,363.00
2023-01-12T01:10:46.273Z,383.20
2023-01-12T01:11:46.235Z,371.20
2023-01-12T01:12:46.226Z,323.20
2023-01-12T01:13:46.241Z,343.30
2023-01-12T01:14:46.195Z,376.70
2023-01-12T01:15:46.232Z,336.60
2023-01-12T01:16:46.171Z,350.20
2023-01-12T01:17:46.166Z,377.30
2023-01-12T01:18:46.153Z,343.00
2023-01-12T01:19:46.162Z,343.70
2023-01-12T01:20:46.172Z,332.00
2023-01-12T01:21:46.123Z,338.70
2023-01-12T01:22:46.114Z,316.40
2023-01-12T01:23:46.137Z,302.70
2023-01-12T01:24:46.092Z,306.40
2023-01-12T01:25:46.118Z,310.10
2023-01-12T01:26:46.078Z,319.00
2023-01-12T01:27:46.056Z,319.60
2023-01-12T01:28:46.051Z,337.50
2023-01-12T01:29:46.023Z,336.10
2023-01-12T01:30:46.102Z,322.30
2023-01-12T01:31:45.997Z,321.60
2023-01-12T01:32:46.003Z,319.30
2023-01-12T01:33:45.995Z,333.70
2023-01-12T01:34:45.979Z,330.40
2023-01-12T01:35:46.005Z,317.70
2023-01-12T01:36:45.982Z,309.10
2023-01-12T01:37:45.954Z,308.00
2023-01-12T01:38:45.938Z,321.70
2023-01-12T01:39:45.901Z,304.80
2023-01-12T01:40:45.951Z,278.80
2023-01-12T01:41:45.891Z,253.30
2023-01-12T01:42:45.916Z,240.30
2023-01-12T01:43:45.883Z,244.80
2023-01-12T01:44:45.865Z,258.40
2023-01-12T01:45:45.884Z,289.90
2023-01-12T01:46:45.960Z,245.90
2023-01-12T01:47:45.820Z,277.60
2023-01-12T01:48:45.829Z,264.30
2023-01-12T01:49:45.823Z,285.30
2023-01-12T01:50:45.841Z,317.70
2023-01-12T01:51:45.786Z,297.40
2023-01-12T01:52:45.795Z,313.70
2023-01-12T01:53:45.757Z,330.00
2023-01-12T01:54:45.764Z,325.00
2023-01-12T01:55:45.770Z,326.60
2023-01-12T01:56:45.738Z,357.30
2023-01-12T01:57:45.723Z,353.70
2023-01-12T01:58:45.715Z,381.00
2023-01-12T01:59:45.685Z,348.50
2023-01-12T02:00:45.717Z,361.80
2023-01-12T02:01:45.732Z,378.30
2023-01-12T02:02:45.693Z,401.10
2023-01-12T02:03:45.633Z,386.20
2023-01-12T02:04:45.653Z,386.20
2023-01-12T02:05:45.675Z,354.70
2023-01-12T02:06:45.620Z,374.80
2023-01-12T02:07:45.596Z,381.80
2023-01-12T02:08:45.593Z,346.70
2023-01-12T02:09:45.576Z,306.50
2023-01-12T02:10:45.611Z,296.40
2023-01-12T02:11:45.560Z,319.10
2023-01-12T02:12:45.557Z,277.80
2023-01-12T02:13:45.537Z,279.80
2023-01-12T02:14:45.530Z,289.20
2023-01-12T02:15:45.558Z,263.40
2023-01-12T02:16:45.497Z,251.50
2023-01-12T02:17:45.499Z,275.60
2023-01-12T02:18:45.478Z,388.10
2023-01-12T02:19:45.466Z,230.70
2023-01-12T02:20:45.500Z,245.70
2023-01-12T02:21:45.440Z,297.50
2023-01-12T02:22:45.478Z,336.50
2023-01-12T02:23:45.425Z,214.00
2023-01-12T02:24:45.425Z,421.10
2023-01-12T02:25:45.436Z,278.70
2023-01-12T02:26:45.403Z,262.30
2023-01-12T02:27:45.394Z,312.60
2023-01-12T02:28:45.380Z,298.20
2023-01-12T02:29:45.370Z,310.60
2023-01-12T02:30:45.379Z,287.70
2023-01-12T02:31:45.339Z,278.20
2023-01-12T02:32:45.330Z,409.40
2023-01-12T02:33:45.319Z,677.20
2023-01-12T02:34:45.303Z,685.10
2023-01-12T02:35:45.342Z,458.60
2023-01-12T02:36:45.269Z,536.70
2023-01-12T02:37:45.257Z,630.20
2023-01-12T02:38:45.259Z,542.90
2023-01-12T02:39:45.239Z,489.50
2023-01-12T02:40:45.279Z,381.30
2023-01-12T02:41:45.219Z,424.90
2023-01-12T02:42:45.230Z,461.10
2023-01-12T02:43:45.193Z,484.10
2023-01-12T02:44:45.203Z,404.10
2023-01-12T02:45:45.219Z,530.80
2023-01-12T02:46:45.220Z,560.30
2023-01-12T02:47:45.167Z,330.90
2023-01-12T02:48:45.150Z,416.70
2023-01-12T02:49:45.150Z,373.50
2023-01-12T02:50:45.165Z,442.50
2023-01-12T02:51:45.105Z,375.00
2023-01-12T02:52:45.097Z,374.70
2023-01-12T02:53:45.087Z,390.60
2023-01-12T02:54:45.080Z,416.20
2023-01-12T02:55:45.108Z,379.20
2023-01-12T02:56:45.042Z,374.40
2023-01-12T02:57:45.064Z,368.40
2023-01-12T02:58:45.020Z,371.90
2023-01-12T02:59:45.028Z,359.00
2023-01-12T03:00:45.131Z,375.90
2023-01-12T03:01:45.040Z,394.60
2023-01-12T03:02:45.061Z,364.10
2023-01-12T03:03:44.995Z,365.10
2023-01-12T03:04:44.978Z,356.70
2023-01-12T03:05:44.979Z,382.00
2023-01-12T03:06:44.946Z,369.60
2023-01-12T03:07:44.929Z,352.60
2023-01-12T03:08:44.954Z,379.60
2023-01-12T03:09:44.910Z,399.20
2023-01-12T03:10:44.929Z,370.30
2023-01-12T03:11:44.876Z,377.90
2023-01-12T03:12:44.890Z,367.50
2023-01-12T03:13:44.880Z,354.40
2023-01-12T03:14:44.871Z,366.40
2023-01-12T03:15:44.866Z,367.20
2023-01-12T03:16:44.835Z,379.60
2023-01-12T03:17:44.847Z,376.10
2023-01-12T03:18:44.806Z,387.00
2023-01-12T03:19:44.801Z,378.00
2023-01-12T03:20:44.834Z,396.60
2023-01-12T03:21:44.761Z,377.00
2023-01-12T03:22:44.761Z,395.40
2023-01-12T03:23:44.744Z,390.10
2023-01-12T03:24:44.744Z,379.70
2023-01-12T03:25:44.755Z,381.30
2023-01-12T03:26:44.713Z,390.90
2023-01-12T03:27:44.702Z,392.60
2023-01-12T03:28:44.697Z,397.70
2023-01-12T03:29:44.690Z,399.30
2023-01-12T03:30:44.739Z,401.00
2023-01-12T03:31:44.679Z,406.20
2023-01-12T03:32:44.632Z,388.00
2023-01-12T03:33:44.651Z,418.40
2023-01-12T03:34:44.655Z,407.00
2023-01-12T03:35:44.663Z,395.20
2023-01-12T03:36:44.612Z,372.50
2023-01-12T03:37:44.591Z,353.30
2023-01-12T03:38:44.595Z,335.60
2023-01-12T03:39:44.553Z,351.70
2023-01-12T03:40:44.595Z,378.90
2023-01-12T03:41:44.556Z,337.10
2023-01-12T03:42:44.551Z,378.80
2023-01-12T03:43:44.529Z,346.80
2023-01-12T03:44:44.524Z,357.10
2023-01-12T03:45:44.539Z,385.10
2023-01-12T03:46:44.576Z,354.40
2023-01-12T03:47:44.486Z,365.30
2023-01-12T03:48:44.460Z,414.50
2023-01-12T03:49:44.452Z,438.00
2023-01-12T03:50:44.497Z,415.60
2023-01-12T03:51:44.422Z,404.40
2023-01-12T03:52:44.422Z,379.30
2023-01-12T03:53:44.405Z,370.30
2023-01-12T03:54:44.447Z,379.00
2023-01-12T03:55:44.431Z,366.40
2023-01-12T03:56:44.381Z,353.70
2023-01-12T03:57:44.363Z,350.90
2023-01-12T03:58:44.357Z,380.10
2023-01-12T03:59:44.341Z,359.10
2023-01-12T04:00:44.450Z,352.00
2023-01-12T04:01:44.414Z,352.30
2023-01-12T04:02:44.307Z,102.70
2023-01-12T04:03:44.315Z,372.70
2023-01-12T04:04:44.304Z,375.10
2023-01-12T04:05:44.313Z,400.50
2023-01-12T04:06:44.268Z,494.50
2023-01-12T04:07:44.252Z,482.90
2023-01-12T04:08:44.240Z,350.70
2023-01-12T04:09:44.228Z,178.30
2023-01-12T04:10:44.278Z,187.70
2023-01-12T04:11:44.208Z,128.20
2023-01-12T04:12:44.192Z,131.60
2023-01-12T04:13:44.174Z,140.20
2023-01-12T04:14:46.217Z,262.60
2023-01-12T04:15:44.180Z,320.60
2023-01-12T04:16:44.144Z,234.20
2023-01-12T04:17:44.137Z,181.40
2023-01-12T04:18:44.149Z,224.20
2023-01-12T04:19:44.122Z,269.40
2023-01-12T04:20:44.147Z,204.70
2023-01-12T04:21:44.108Z,219.20
2023-01-12T04:22:44.107Z,253.10
2023-01-12T04:23:44.094Z,214.30
2023-01-12T04:24:44.084Z,271.70
2023-01-12T04:25:44.099Z,284.50
2023-01-12T04:26:44.035Z,248.70
2023-01-12T04:27:44.031Z,214.10
2023-01-12T04:28:44.041Z,193.80
2023-01-12T04:29:44.004Z,316.50
2023-01-12T04:30:44.047Z,253.20
2023-01-12T04:31:44.074Z,187.40
2023-01-12T04:32:43.989Z,194.10
2023-01-12T04:33:43.960Z,358.80
2023-01-12T04:34:43.952Z,222.40
2023-01-12T04:35:43.964Z,203.60
2023-01-12T04:36:43.953Z,237.70
2023-01-12T04:37:43.932Z,98.20
2023-01-12T04:38:43.915Z,314.80
2023-01-12T04:39:43.892Z,182.20
2023-01-12T04:40:43.952Z,255.90
2023-01-12T04:41:43.877Z,231.60
2023-01-12T04:42:43.849Z,140.40
2023-01-12T04:43:43.833Z,92.20
2023-01-12T04:44:43.827Z,228.50
2023-01-12T04:45:43.996Z,277.60
2023-01-12T04:46:43.834Z,322.70
2023-01-12T04:47:43.800Z,84.70
2023-01-12T04:48:43.788Z,51.50
2023-01-12T04:49:43.786Z,296.80
2023-01-12T04:50:43.824Z,267.70
2023-01-12T04:51:43.746Z,201.30
2023-01-12T04:52:43.766Z,47.20
2023-01-12T04:53:43.789Z,116.40
2023-01-12T04:54:43.716Z,230.70
2023-01-12T04:55:43.757Z,382.20
2023-01-12T04:56:43.699Z,55.80
2023-01-12T04:57:43.679Z,129.90
2023-01-12T04:58:43.678Z,264.80
2023-01-12T04:59:43.660Z,37.90
2023-01-12T05:00:43.704Z,302.90
2023-01-12T05:01:43.777Z,241.70
2023-01-12T05:02:43.627Z,49.30
2023-01-12T05:03:43.663Z,381.60
2023-01-12T05:04:43.611Z,54.70
2023-01-12T05:05:43.636Z,119.60
2023-01-12T05:06:43.587Z,241.10
2023-01-12T05:07:43.569Z,329.00
2023-01-12T05:08:43.559Z,45.30
2023-01-12T05:09:43.556Z,393.40
2023-01-12T05:10:43.564Z,57.40
2023-01-12T05:11:43.523Z,153.80
2023-01-12T05:12:43.516Z,313.00
2023-01-12T05:13:43.508Z,178.20
2023-01-12T05:14:43.499Z,38.00
2023-01-12T05:15:43.484Z,288.30
2023-01-12T05:16:43.490Z,52.60
2023-01-12T05:17:43.467Z,227.50
2023-01-12T05:18:43.445Z,294.20
2023-01-12T05:19:43.428Z,69.60
2023-01-12T05:20:43.457Z,296.30
2023-01-12T05:21:43.423Z,156.30
2023-01-12T05:22:43.403Z,159.30
2023-01-12T05:23:43.386Z,159.80
2023-01-12T05:24:43.379Z,53.10
2023-01-12T05:25:43.401Z,436.30
2023-01-12T05:26:43.360Z,39.60
2023-01-12T05:27:43.351Z,46.50
2023-01-12T05:28:43.330Z,305.30
2023-01-12T05:29:43.313Z,55.00
2023-01-12T05:30:43.364Z,241.30
2023-01-12T05:31:43.301Z,152.90
2023-01-12T05:32:43.288Z,158.70
2023-01-12T05:33:43.282Z,189.60
2023-01-12T05:34:43.275Z,39.80
2023-01-12T05:35:43.301Z,116.50
2023-01-12T05:36:43.258Z,193.40
2023-01-12T05:37:43.237Z,372.10
2023-01-12T05:38:43.222Z,43.60
2023-01-12T05:39:43.222Z,184.30
2023-01-12T05:40:43.239Z,162.70
2023-01-12T05:41:43.186Z,149.90
2023-01-12T05:42:43.186Z,37.30
2023-01-12T05:43:43.161Z,372.70
2023-01-12T05:44:43.143Z,60.10
2023-01-12T05:45:43.219Z,187.80
2023-01-12T05:46:43.118Z,318.30
2023-01-12T05:47:43.111Z,150.50
2023-01-12T05:48:43.089Z,40.40
2023-01-12T05:49:43.107Z,215.90
2023-01-12T05:50:43.121Z,44.90
2023-01-12T05:51:43.074Z,189.30
2023-01-12T05:52:43.053Z,350.90
2023-01-12T05:53:43.052Z,60.20
2023-01-12T05:54:43.045Z,257.50
2023-01-12T05:55:43.065Z,54.20
2023-01-12T05:56:43.018Z,137.90
2023-01-12T05:57:43.002Z,126.80
2023-01-12T05:58:42.984Z,238.20
2023-01-12T05:59:42.975Z,51.80
2023-01-12T06:00:43.023Z,114.80
2023-01-12T06:01:42.981Z,316.00
2023-01-12T06:02:42.968Z,142.90
2023-01-12T06:03:42.958Z,45.40
2023-01-12T06:04:43.031Z,198.80
2023-01-12T06:05:42.930Z,219.80
2023-01-12T06:06:42.949Z,168.60
2023-01-12T06:07:42.897Z,74.10
2023-01-12T06:08:42.870Z,228.10
2023-01-12T06:09:42.876Z,231.80
2023-01-12T06:10:42.853Z,57.40
2023-01-12T06:11:42.916Z,102.50
2023-01-12T06:12:42.829Z,116.00
2023-01-12T06:13:42.858Z,42.30
2023-01-12T06:14:42.822Z,75.40
2023-01-12T06:15:42.816Z,279.50
2023-01-12T06:16:42.857Z,136.10
2023-01-12T06:17:42.805Z,37.70
2023-01-12T06:18:42.767Z,152.80
2023-01-12T06:19:42.765Z,187.40
2023-01-12T06:20:42.754Z,41.90
2023-01-12T06:21:42.788Z,239.70
2023-01-12T06:22:42.732Z,195.20
2023-01-12T06:23:42.709Z,74.20
2023-01-12T06:24:42.711Z,142.50
2023-01-12T06:25:42.731Z,226.70
2023-01-12T06:26:42.740Z,58.20
2023-01-12T06:27:42.677Z,239.10
2023-01-12T06:28:42.670Z,128.30
2023-01-12T06:29:42.649Z,134.40
2023-01-12T06:30:42.651Z,140.10
2023-01-12T06:31:42.651Z,106.80
2023-01-12T06:32:42.630Z,115.30
2023-01-12T06:33:42.593Z,58.60
2023-01-12T06:34:42.584Z,180.30
2023-01-12T06:35:42.586Z,144.60
2023-01-12T06:36:42.639Z,47.40
2023-01-12T06:37:42.555Z,123.70
2023-01-12T06:38:42.557Z,109.30
2023-01-12T06:39:42.565Z,228.30
2023-01-12T06:40:42.531Z,68.20
2023-01-12T06:41:42.572Z,48.40
2023-01-12T06:42:42.504Z,174.30
2023-01-12T06:43:42.501Z,86.90
2023-01-12T06:44:42.492Z,74.20
2023-01-12T06:45:42.490Z,63.00
2023-01-12T06:46:42.522Z,123.80
2023-01-12T06:47:42.436Z,145.70
2023-01-12T06:48:42.452Z,67.80
2023-01-12T06:49:42.426Z,84.30
2023-01-12T06:50:42.461Z,119.90
2023-01-12T06:51:42.403Z,75.40
2023-01-12T06:52:42.423Z,63.30
2023-01-12T06:53:42.375Z,51.80
2023-01-12T06:54:42.370Z,83.90
2023-01-12T06:55:42.351Z,123.30
2023-01-12T06:56:42.334Z,55.70
2023-01-12T06:57:42.399Z,47.90
2023-01-12T06:58:42.332Z,150.20
2023-01-12T06:59:42.347Z,63.70
2023-01-12T07:00:42.326Z,90.70
2023-01-12T07:01:42.338Z,57.20
2023-01-12T07:02:42.294Z,53.00
2023-01-12T07:03:42.275Z,113.70
2023-01-12T07:04:42.304Z,145.40
2023-01-12T07:05:42.270Z,56.20
2023-01-12T07:06:42.258Z,74.40
2023-01-12T07:07:42.286Z,103.40
2023-01-12T07:08:42.243Z,141.00
2023-01-12T07:09:42.226Z,57.30
2023-01-12T07:10:42.187Z,67.90
2023-01-12T07:11:42.212Z,96.60
2023-01-12T07:12:42.222Z,94.60
2023-01-12T07:13:42.174Z,89.60
2023-01-12T07:14:42.155Z,95.90
2023-01-12T07:15:42.165Z,111.10
2023-01-12T07:16:42.117Z,136.90
2023-01-12T07:17:42.160Z,93.80
2023-01-12T07:18:42.079Z,66.70
2023-01-12T07:19:42.091Z,56.80
2023-01-12T07:20:42.089Z,82.30
2023-01-12T07:21:42.086Z,100.70
2023-01-12T07:22:42.102Z,75.70
2023-01-12T07:23:42.063Z,66.10
2023-01-12T07:24:42.021Z,64.70
2023-01-12T07:25:42.056Z,80.70
2023-01-12T07:26:42.028Z,93.50
2023-01-12T07:27:42.053Z,79.50
2023-01-12T07:28:41.968Z,120.30
2023-01-12T07:29:42.011Z,71.40
2023-01-12T07:30:41.979Z,68.80
2023-01-12T07:31:41.947Z,65.40
2023-01-12T07:32:41.977Z,146.30
2023-01-12T07:33:41.933Z,144.50
2023-01-12T07:34:41.944Z,68.90
2023-01-12T07:35:41.925Z,113.70
2023-01-12T07:36:41.917Z,233.30
2023-01-12T07:37:41.935Z,54.70
2023-01-12T07:38:41.890Z,222.10
2023-01-12T07:39:41.881Z,179.00
2023-01-12T07:40:41.862Z,88.80
2023-01-12T07:41:41.847Z,65.50
2023-01-12T07:42:41.866Z,65.80
2023-01-12T07:43:41.829Z,206.30
2023-01-12T07:44:41.837Z,248.20
2023-01-12T07:45:41.810Z,98.60
2023-01-12T07:46:41.820Z,69.70
2023-01-12T07:47:41.836Z,368.70
2023-01-12T07:48:41.778Z,57.20
2023-01-12T07:49:41.758Z,394.30
2023-01-12T07:50:41.744Z,266.30
2023-01-12T07:51:41.723Z,150.10
2023-01-12T07:52:41.757Z,100.70
2023-01-12T07:53:41.767Z,90.20
2023-01-12T07:54:41.709Z,115.20
2023-01-12T07:55:41.684Z,252.80
2023-01-12T07:56:44.088Z,131.40
2023-01-12T07:57:41.686Z,195.60
2023-01-12T07:58:41.718Z,143.00
2023-01-12T07:59:41.697Z,181.10
2023-01-12T08:00:41.626Z,176.40
2023-01-12T08:01:41.694Z,166.90
2023-01-12T08:02:41.606Z,318.60
2023-01-12T08:03:41.629Z,566.40
2023-01-12T08:04:41.599Z,158.10
2023-01-12T08:05:41.677Z,504.40
2023-01-12T08:06:41.589Z,150.60
2023-01-12T08:07:41.555Z,170.50
2023-01-12T08:08:41.590Z,597.10
2023-01-12T08:09:41.541Z,181.10
2023-01-12T08:10:41.514Z,434.20
2023-01-12T08:11:41.502Z,153.80
2023-01-12T08:12:41.492Z,557.80
2023-01-12T08:13:41.542Z,157.40
2023-01-12T08:14:41.499Z,671.40
2023-01-12T08:15:41.473Z,142.90
2023-01-12T08:16:41.436Z,999.90
2023-01-12T08:17:41.439Z,138.00
2023-01-12T08:18:41.470Z,999.90
2023-01-12T08:19:41.444Z,289.80
2023-01-12T08:20:41.412Z,181.60
2023-01-12T08:21:41.397Z,999.90
2023-01-12T08:22:41.381Z,999.90
2023-01-12T08:23:41.980Z,999.90
2023-01-12T08:24:41.349Z,999.90
2023-01-12T08:25:41.346Z,492.80
2023-01-12T08:26:41.359Z,211.20
2023-01-12T08:27:41.333Z,219.40
2023-01-12T08:28:41.360Z,999.90
2023-01-12T08:29:41.327Z,999.90
2023-01-12T08:30:41.309Z,999.90
2023-01-12T08:31:41.295Z,999.90
2023-01-12T08:32:41.340Z,999.90
2023-01-12T08:33:41.313Z,529.90
2023-01-12T08:34:41.266Z,999.90
2023-01-12T08:35:41.220Z,999.90
2023-01-12T08:36:43.049Z,999.90
2023-01-12T08:37:41.219Z,999.90
2023-01-12T08:38:41.239Z,999.90
2023-01-12T08:39:41.189Z,999.90
2023-01-12T08:40:41.168Z,999.90
2023-01-12T08:41:41.173Z,999.90
2023-01-12T08:42:41.150Z,999.90
2023-01-12T08:43:41.199Z,999.90
2023-01-12T08:44:41.111Z,999.90
2023-01-12T08:45:41.111Z,999.90
2023-01-12T08:46:41.155Z,999.90
2023-01-12T08:47:41.108Z,999.90
2023-01-12T08:48:41.115Z,999.90
2023-01-12T08:49:41.057Z,999.90
2023-01-12T08:50:41.068Z,999.90
2023-01-12T08:51:41.053Z,999.90
2023-01-12T08:52:41.038Z,999.90
2023-01-12T08:53:41.065Z,999.90
2023-01-12T08:54:41.002Z,999.90
2023-01-12T08:55:41.014Z,999.90
2023-01-12T08:56:40.995Z,999.90
2023-01-12T08:57:40.990Z,999.90
2023-01-12T08:58:41.028Z,999.90
2023-01-12T08:59:40.965Z,999.90
2023-01-12T09:00:41.010Z,999.90
2023-01-12T09:01:41.145Z,999.90
2023-01-12T09:02:40.964Z,999.90
2023-01-12T09:03:40.988Z,999.90
2023-01-12T09:04:40.924Z,999.90
2023-01-12T09:05:40.919Z,879.10
2023-01-12T09:06:40.880Z,999.90
2023-01-12T09:07:40.892Z,999.90
2023-01-12T09:08:40.845Z,407.40
2023-01-12T09:09:40.886Z,999.90
2023-01-12T09:10:40.827Z,999.90
2023-01-12T09:11:40.832Z,626.40
2023-01-12T09:12:40.791Z,52.80
2023-01-12T09:13:40.785Z,999.90
2023-01-12T09:14:40.812Z,45.60
2023-01-12T09:15:41.177Z,119.50
2023-01-12T09:16:40.846Z,619.00
2023-01-12T09:17:40.767Z,659.20
2023-01-12T09:18:40.753Z,26.90
2023-01-12T09:19:40.757Z,136.70
2023-01-12T09:20:40.721Z,186.60
2023-01-12T09:21:40.736Z,17.20
2023-01-12T09:22:40.688Z,16.40
2023-01-12T09:23:40.715Z,16.60
2023-01-12T09:24:40.734Z,18.50
2023-01-12T09:25:40.673Z,18.10
2023-01-12T09:26:40.649Z,18.80
2023-01-12T09:27:40.635Z,17.80
2023-01-12T09:28:40.638Z,16.90
2023-01-12T09:29:40.652Z,20.30
2023-01-12T09:30:40.593Z,19.10
2023-01-12T09:31:40.633Z,19.10
2023-01-12T09:32:40.589Z,17.90
2023-01-12T09:33:40.565Z,20.50
2023-01-12T09:34:40.628Z,23.70
2023-01-12T09:35:40.555Z,23.30
2023-01-12T09:36:40.600Z,24.80
2023-01-12T09:37:40.562Z,22.70
2023-01-12T09:38:40.521Z,26.00
2023-01-12T09:39:40.541Z,24.10
2023-01-12T09:40:40.483Z,20.70
2023-01-12T09:41:40.501Z,21.40
2023-01-12T09:42:40.464Z,18.20
2023-01-12T09:43:40.442Z,19.40
2023-01-12T09:44:40.466Z,11.90
2023-01-12T09:45:40.445Z,10.70
2023-01-12T09:46:40.494Z,9.90
2023-01-12T09:47:40.420Z,10.00
2023-01-12T09:48:40.388Z,10.60
2023-01-12T09:49:40.410Z,10.20
2023-01-12T09:50:40.402Z,10.90
2023-01-12T09:51:40.395Z,8.90
2023-01-12T09:52:40.350Z,9.90
2023-01-12T09:53:40.373Z,9.00
2023-01-12T09:54:40.387Z,9.10
2023-01-12T09:55:40.334Z,9.90
2023-01-12T09:56:40.320Z,10.70
2023-01-12T09:57:40.293Z,48.20
2023-01-12T09:58:40.314Z,11.80
2023-01-12T09:59:40.266Z,11.20
2023-01-12T10:00:40.336Z,10.10
2023-01-12T10:01:40.324Z,8.40
2023-01-12T10:02:40.451Z,10.50
2023-01-12T10:03:40.294Z,10.60
2023-01-12T10:04:40.234Z,11.70
2023-01-12T10:05:40.465Z,10.80
2023-01-12T10:06:40.192Z,12.90
2023-01-12T10:07:42.107Z,11.90
2023-01-12T10:08:40.180Z,11.20
2023-01-12T10:09:40.166Z,12.30
2023-01-12T10:10:40.206Z,16.00
2023-01-12T10:11:40.132Z,13.30
2023-01-12T10:12:40.116Z,14.40
2023-01-12T10:13:40.086Z,12.50
2023-01-12T10:14:40.156Z,12.70
2023-01-12T10:15:40.144Z,13.50
2023-01-12T10:16:40.160Z,13.30
2023-01-12T10:17:50.740Z,12.00
2023-01-12T10:18:41.095Z,11.20
2023-01-12T10:19:40.049Z,10.80
2023-01-12T10:20:40.036Z,9.40
2023-01-12T10:21:40.072Z,9.70
2023-01-12T10:22:40.010Z,15.80
2023-01-12T10:23:40.055Z,9.10
2023-01-12T10:24:39.995Z,9.50
2023-01-12T10:25:39.977Z,11.80
2023-01-12T10:26:40.023Z,10.50
2023-01-12T10:27:40.821Z,10.20
2023-01-12T10:28:39.946Z,11.30
2023-01-12T10:29:39.937Z,12.90
2023-01-12T10:30:39.933Z,11.80
2023-01-12T10:31:39.995Z,12.30
2023-01-12T10:32:41.965Z,16.10
2023-01-12T10:33:39.889Z,9.40
2023-01-12T10:34:39.859Z,10.90
2023-01-12T10:35:39.907Z,10.20
2023-01-12T10:36:39.915Z,10.60
2023-01-12T10:37:39.839Z,13.10
2023-01-12T10:38:39.847Z,11.20
2023-01-12T10:39:39.842Z,15.10
2023-01-12T10:40:39.797Z,20.60
2023-01-12T10:41:39.801Z,11.50
2023-01-12T10:42:39.798Z,11.60
2023-01-12T10:43:39.759Z,19.70
2023-01-12T10:44:39.777Z,11.30
2023-01-12T10:45:39.795Z,12.00
2023-01-12T10:46:39.784Z,11.60
2023-01-12T10:47:39.725Z,12.70
2023-01-12T10:48:39.741Z,12.00
2023-01-12T10:49:39.719Z,12.10
2023-01-12T10:50:39.703Z,12.00
2023-01-12T10:51:39.720Z,17.90
2023-01-12T10:52:39.672Z,12.00
2023-01-12T10:53:39.679Z,14.70
2023-01-12T10:54:39.660Z,9.70
2023-01-12T10:55:39.675Z,10.60
2023-01-12T10:56:39.695Z,10.40
2023-01-12T10:57:39.604Z,11.90
2023-01-12T10:58:39.612Z,26.30
2023-01-12T10:59:39.591Z,9.10
2023-01-12T11:00:39.629Z,10.00
2023-01-12T11:01:39.744Z,8.40
2023-01-12T11:02:39.636Z,8.10
2023-01-12T11:03:39.550Z,7.50
2023-01-12T11:04:39.532Z,7.70
2023-01-12T11:05:39.552Z,7.80
2023-01-12T11:06:39.558Z,7.80
2023-01-12T11:07:39.525Z,7.20
2023-01-12T11:08:39.519Z,7.20
2023-01-12T11:09:39.490Z,7.90
2023-01-12T11:10:39.481Z,7.40
2023-01-12T11:11:39.482Z,7.50
2023-01-12T11:12:39.429Z,8.10
2023-01-12T11:13:39.426Z,6.90
2023-01-12T11:14:39.440Z,7.10
2023-01-12T11:15:39.422Z,8.40
2023-01-12T11:16:39.472Z,7.10
2023-01-12T11:17:39.413Z,8.10
2023-01-12T11:18:39.365Z,8.90
2023-01-12T11:19:39.367Z,7.10
2023-01-12T11:20:39.359Z,7.80
2023-01-12T11:21:39.373Z,8.10
2023-01-12T11:22:39.335Z,7.10
2023-01-12T11:23:39.312Z,7.80
2023-01-12T11:24:39.324Z,8.50
2023-01-12T11:25:39.292Z,8.70
2023-01-12T11:26:39.341Z,11.20
2023-01-12T11:27:39.275Z,12.00
2023-01-12T11:28:39.281Z,11.80
2023-01-12T11:29:39.247Z,12.20
2023-01-12T11:30:39.285Z,9.40
2023-01-12T11:31:39.242Z,10.30
2023-01-12T11:32:39.216Z,10.40
2023-01-12T11:33:39.219Z,9.40
2023-01-12T11:34:39.196Z,10.30
2023-01-12T11:35:39.197Z,9.40
2023-01-12T11:36:39.250Z,10.10
2023-01-12T11:37:39.168Z,9.70
2023-01-12T11:38:39.158Z,10.40
2023-01-12T11:39:39.115Z,46.50
2023-01-12T11:40:39.131Z,40.30
2023-01-12T11:41:39.151Z,91.10
2023-01-12T11:42:39.128Z,74.80
2023-01-12T11:43:39.087Z,61.90
2023-01-12T11:44:39.119Z,80.80
2023-01-12T11:45:39.089Z,53.90
2023-01-12T11:46:39.102Z,50.00
2023-01-12T11:47:41.639Z,37.30
2023-01-12T11:48:39.048Z,49.80
2023-01-12T11:49:39.024Z,50.80
2023-01-12T11:50:39.048Z,48.90
2023-01-12T11:51:39.045Z,48.30
2023-01-12T11:52:38.984Z,50.60
2023-01-12T11:53:41.310Z,50.90
2023-01-12T11:54:38.983Z,47.30
2023-01-12T11:55:38.949Z,47.70
2023-01-12T11:56:38.996Z,51.60
2023-01-12T11:57:38.940Z,47.10
2023-01-12T11:58:38.931Z,44.40
2023-01-12T11:59:40.869Z,47.80
2023-01-12T12:00:38.891Z,56.60
2023-01-12T12:01:38.887Z,70.30
2023-01-12T12:02:39.009Z,76.50
2023-01-12T12:03:39.109Z,47.10
2023-01-12T12:04:38.838Z,63.10
2023-01-12T12:05:41.202Z,43.40
2023-01-12T12:06:38.879Z,55.70
2023-01-12T12:07:38.863Z,44.80
2023-01-12T12:08:38.809Z,48.70
2023-01-12T12:09:38.781Z,57.60
2023-01-12T12:10:38.794Z,44.00
2023-01-12T12:11:41.605Z,43.60
2023-01-12T12:12:38.785Z,49.90
2023-01-12T12:13:38.880Z,74.40
2023-01-12T12:14:38.735Z,53.50
2023-01-12T12:15:38.747Z,56.70
2023-01-12T12:16:38.782Z,63.30
2023-01-12T12:17:41.614Z,55.80
2023-01-12T12:18:38.720Z,54.90
2023-01-12T12:19:38.692Z,55.60
2023-01-12T12:20:38.693Z,57.10
2023-01-12T12:21:38.662Z,57.50
2023-01-12T12:22:38.707Z,55.10
2023-01-12T12:23:39.358Z,57.90
2023-01-12T12:24:38.651Z,54.70
2023-01-12T12:25:38.630Z,17.00
2023-01-12T12:26:38.626Z,11.20
2023-01-12T12:27:38.659Z,12.10
2023-01-12T12:28:38.604Z,11.20
2023-01-12T12:29:40.918Z,12.00
2023-01-12T12:30:38.635Z,10.50
2023-01-12T12:31:38.644Z,9.90
2023-01-12T12:32:38.593Z,9.80
2023-01-12T12:33:38.522Z,10.00
2023-01-12T12:34:38.518Z,10.30
2023-01-12T12:35:40.602Z,10.00
2023-01-12T12:36:38.506Z,10.70
2023-01-12T12:37:38.528Z,11.40
2023-01-12T12:38:38.469Z,13.60